sensor_id;sensor_type;location;lat;lon;timestamp;P1;durP1;ratioP1;P2;durP2;ratioP2
12120;SDS011;6124;59.460;17.908;2023-09-08T00:01:16;3.93;;;2.03;;
12120;SDS011;6124;59.460;17.908;2023-09-08T00:03:44;3.53;;;1.87;;
12120;SDS011;6124;59.460;17.908;2023-09-08T00:06:12;3.77;;;2.50;;
12120;SDS011;6124;59.460;17.908;2023-09-08T00:08:39;4.43;;;2.07;;
12120;SDS011;6124;59.460;17.908;2023-09-08T00:11:08;4.30;;;2.07;;
12120;SDS011;6124;59.460;17.908;2023-09-08T00:13:35;2.43;;;2.10;;
12120;SDS011;6124;59.460;17.908;2023-09-08T00:16:06;3.40;;;2.00;;
12120;SDS011;6124;59.460;17.908;2023-09-08T00:18:35;2.20;;;2.00;;
12120;SDS011;6124;59.460;17.908;2023-09-08T00:21:02;3.03;;;2.10;;
12120;SDS011;6124;59.460;17.908;2023-09-08T00:23:29;4.37;;;2.40;;
12120;SDS011;6124;59.460;17.908;2023-09-08T00:25:57;4.67;;;2.50;;
12120;SDS011;6124;59.460;17.908;2023-09-08T00:28:24;4.20;;;2.57;;
12120;SDS011;6124;59.460;17.908;2023-09-08T00:30:52;6.80;;;2.97;;
12120;SDS011;6124;59.460;17.908;2023-09-08T00:33:20;6.80;;;2.80;;
12120;SDS011;6124;59.460;17.908;2023-09-08T00:35:48;5.10;;;2.63;;
12120;SDS011;6124;59.460;17.908;2023-09-08T00:38:16;4.27;;;2.53;;
12120;SDS011;6124;59.460;17.908;2023-09-08T00:40:43;6.00;;;2.70;;
12120;SDS011;6124;59.460;17.908;2023-09-08T00:43:10;5.23;;;2.90;;
12120;SDS011;6124;59.460;17.908;2023-09-08T00:45:38;6.17;;;2.70;;
12120;SDS011;6124;59.460;17.908;2023-09-08T00:48:06;5.80;;;2.60;;
12120;SDS011;6124;59.460;17.908;2023-09-08T00:50:35;5.00;;;2.47;;
12120;SDS011;6124;59.460;17.908;2023-09-08T00:53:03;5.93;;;2.30;;
12120;SDS011;6124;59.460;17.908;2023-09-08T00:55:31;3.77;;;2.43;;
12120;SDS011;6124;59.460;17.908;2023-09-08T00:57:58;3.23;;;2.43;;
12120;SDS011;6124;59.460;17.908;2023-09-08T01:00:26;3.17;;;2.13;;
12120;SDS011;6124;59.460;17.908;2023-09-08T01:02:53;4.67;;;2.50;;
12120;SDS011;6124;59.460;17.908;2023-09-08T01:05:20;3.37;;;2.67;;
12120;SDS011;6124;59.460;17.908;2023-09-08T01:07:49;5.53;;;3.57;;
12120;SDS011;6124;59.460;17.908;2023-09-08T01:10:17;6.67;;;3.30;;
12120;SDS011;6124;59.460;17.908;2023-09-08T01:12:45;3.10;;;2.80;;
12120;SDS011;6124;59.460;17.908;2023-09-08T01:15:12;4.40;;;3.03;;
12120;SDS011;6124;59.460;17.908;2023-09-08T01:17:40;7.63;;;3.40;;
12120;SDS011;6124;59.460;17.908;2023-09-08T01:20:08;6.00;;;4.03;;
12120;SDS011;6124;59.460;17.908;2023-09-08T01:22:45;5.20;;;3.97;;
12120;SDS011;6124;59.460;17.908;2023-09-08T01:25:15;6.13;;;3.80;;
12120;SDS011;6124;59.460;17.908;2023-09-08T01:27:46;5.10;;;3.53;;
12120;SDS011;6124;59.460;17.908;2023-09-08T01:30:14;5.23;;;3.70;;
12120;SDS011;6124;59.460;17.908;2023-09-08T01:32:42;4.53;;;3.70;;
12120;SDS011;6124;59.460;17.908;2023-09-08T01:35:10;7.63;;;4.43;;
12120;SDS011;6124;59.460;17.908;2023-09-08T01:37:39;7.20;;;4.50;;
12120;SDS011;6124;59.460;17.908;2023-09-08T01:40:07;6.00;;;5.00;;
12120;SDS011;6124;59.460;17.908;2023-09-08T01:42:37;5.70;;;4.57;;
12120;SDS011;6124;59.460;17.908;2023-09-08T01:45:04;6.13;;;4.73;;
12120;SDS011;6124;59.460;17.908;2023-09-08T01:47:32;7.77;;;5.10;;
12120;SDS011;6124;59.460;17.908;2023-09-08T01:49:59;7.37;;;5.07;;
12120;SDS011;6124;59.460;17.908;2023-09-08T01:52:27;8.30;;;4.80;;
12120;SDS011;6124;59.460;17.908;2023-09-08T01:54:54;7.30;;;5.77;;
12120;SDS011;6124;59.460;17.908;2023-09-08T01:57:22;5.90;;;5.00;;
12120;SDS011;6124;59.460;17.908;2023-09-08T01:59:50;6.63;;;5.63;;
12120;SDS011;6124;59.460;17.908;2023-09-08T02:02:18;7.63;;;5.40;;
12120;SDS011;6124;59.460;17.908;2023-09-08T02:04:45;6.40;;;5.50;;
12120;SDS011;6124;59.460;17.908;2023-09-08T02:07:12;8.90;;;6.00;;
12120;SDS011;6124;59.460;17.908;2023-09-08T02:09:40;8.03;;;6.20;;
12120;SDS011;6124;59.460;17.908;2023-09-08T02:12:08;7.37;;;6.03;;
12120;SDS011;6124;59.460;17.908;2023-09-08T02:14:35;6.93;;;5.63;;
12120;SDS011;6124;59.460;17.908;2023-09-08T02:17:04;9.10;;;6.07;;
12120;SDS011;6124;59.460;17.908;2023-09-08T02:19:32;7.50;;;6.53;;
12120;SDS011;6124;59.460;17.908;2023-09-08T02:21:59;6.70;;;5.90;;
12120;SDS011;6124;59.460;17.908;2023-09-08T02:24:27;8.87;;;6.47;;
12120;SDS011;6124;59.460;17.908;2023-09-08T02:26:54;9.30;;;6.73;;
12120;SDS011;6124;59.460;17.908;2023-09-08T02:29:21;7.80;;;6.57;;
12120;SDS011;6124;59.460;17.908;2023-09-08T02:31:49;8.90;;;7.00;;
12120;SDS011;6124;59.460;17.908;2023-09-08T02:34:17;7.67;;;6.83;;
12120;SDS011;6124;59.460;17.908;2023-09-08T02:36:45;9.30;;;7.00;;
12120;SDS011;6124;59.460;17.908;2023-09-08T02:39:16;9.63;;;7.33;;
12120;SDS011;6124;59.460;17.908;2023-09-08T02:41:43;12.10;;;8.30;;
12120;SDS011;6124;59.460;17.908;2023-09-08T02:44:10;10.13;;;7.80;;
12120;SDS011;6124;59.460;17.908;2023-09-08T02:46:38;11.43;;;8.33;;
12120;SDS011;6124;59.460;17.908;2023-09-08T02:49:05;9.63;;;7.83;;
12120;SDS011;6124;59.460;17.908;2023-09-08T02:51:34;9.90;;;7.73;;
12120;SDS011;6124;59.460;17.908;2023-09-08T02:54:01;9.33;;;8.30;;
12120;SDS011;6124;59.460;17.908;2023-09-08T02:56:29;9.83;;;8.13;;
12120;SDS011;6124;59.460;17.908;2023-09-08T02:58:56;8.70;;;7.80;;
12120;SDS011;6124;59.460;17.908;2023-09-08T03:01:23;13.37;;;9.20;;
12120;SDS011;6124;59.460;17.908;2023-09-08T03:03:51;12.03;;;8.40;;
12120;SDS011;6124;59.460;17.908;2023-09-08T03:06:18;13.00;;;9.80;;
12120;SDS011;6124;59.460;17.908;2023-09-08T03:08:47;11.97;;;9.10;;
12120;SDS011;6124;59.460;17.908;2023-09-08T03:11:15;10.40;;;8.97;;
12120;SDS011;6124;59.460;17.908;2023-09-08T03:13:42;9.13;;;7.33;;
12120;SDS011;6124;59.460;17.908;2023-09-08T03:16:09;9.80;;;8.80;;
12120;SDS011;6124;59.460;17.908;2023-09-08T03:18:37;9.60;;;8.60;;
12120;SDS011;6124;59.460;17.908;2023-09-08T03:21:05;10.33;;;8.37;;
12120;SDS011;6124;59.460;17.908;2023-09-08T03:23:35;10.00;;;8.47;;
12120;SDS011;6124;59.460;17.908;2023-09-08T03:26:04;12.27;;;10.20;;
12120;SDS011;6124;59.460;17.908;2023-09-08T03:28:32;10.43;;;9.33;;
12120;SDS011;6124;59.460;17.908;2023-09-08T03:31:00;11.73;;;8.60;;
12120;SDS011;6124;59.460;17.908;2023-09-08T03:33:27;9.50;;;8.27;;
12120;SDS011;6124;59.460;17.908;2023-09-08T03:35:55;12.03;;;9.30;;
12120;SDS011;6124;59.460;17.908;2023-09-08T03:38:22;11.27;;;9.00;;
12120;SDS011;6124;59.460;17.908;2023-09-08T03:40:49;11.57;;;9.47;;
12120;SDS011;6124;59.460;17.908;2023-09-08T03:43:18;9.50;;;8.60;;
12120;SDS011;6124;59.460;17.908;2023-09-08T03:45:46;9.73;;;8.60;;
12120;SDS011;6124;59.460;17.908;2023-09-08T03:48:13;12.57;;;8.67;;
12120;SDS011;6124;59.460;17.908;2023-09-08T03:50:40;13.63;;;9.67;;
12120;SDS011;6124;59.460;17.908;2023-09-08T03:53:10;10.80;;;8.87;;
12120;SDS011;6124;59.460;17.908;2023-09-08T03:55:37;10.20;;;8.67;;
12120;SDS011;6124;59.460;17.908;2023-09-08T03:58:05;12.20;;;9.43;;
12120;SDS011;6124;59.460;17.908;2023-09-08T04:00:34;11.10;;;8.87;;
12120;SDS011;6124;59.460;17.908;2023-09-08T04:03:02;13.33;;;10.43;;
12120;SDS011;6124;59.460;17.908;2023-09-08T04:05:29;11.87;;;10.20;;
12120;SDS011;6124;59.460;17.908;2023-09-08T04:07:57;13.23;;;8.93;;
12120;SDS011;6124;59.460;17.908;2023-09-08T04:10:24;14.43;;;11.30;;
12120;SDS011;6124;59.460;17.908;2023-09-08T04:12:51;11.63;;;9.73;;
12120;SDS011;6124;59.460;17.908;2023-09-08T04:15:19;12.70;;;10.27;;
12120;SDS011;6124;59.460;17.908;2023-09-08T04:17:48;13.43;;;11.10;;
12120;SDS011;6124;59.460;17.908;2023-09-08T04:20:15;13.57;;;10.30;;
12120;SDS011;6124;59.460;17.908;2023-09-08T04:22:43;11.87;;;9.60;;
12120;SDS011;6124;59.460;17.908;2023-09-08T04:25:10;11.03;;;9.53;;
12120;SDS011;6124;59.460;17.908;2023-09-08T04:27:37;11.77;;;9.50;;
12120;SDS011;6124;59.460;17.908;2023-09-08T04:30:06;11.83;;;10.37;;
12120;SDS011;6124;59.460;17.908;2023-09-08T04:32:33;14.53;;;11.87;;
12120;SDS011;6124;59.460;17.908;2023-09-08T04:35:04;15.23;;;11.57;;
12120;SDS011;6124;59.460;17.908;2023-09-08T04:37:32;11.50;;;9.80;;
12120;SDS011;6124;59.460;17.908;2023-09-08T04:39:59;11.27;;;10.07;;
12120;SDS011;6124;59.460;17.908;2023-09-08T04:42:27;12.50;;;10.33;;
12120;SDS011;6124;59.460;17.908;2023-09-08T04:44:54;10.90;;;9.63;;
12120;SDS011;6124;59.460;17.908;2023-09-08T04:47:22;11.83;;;10.17;;
12120;SDS011;6124;59.460;17.908;2023-09-08T04:49:49;12.67;;;10.43;;
12120;SDS011;6124;59.460;17.908;2023-09-08T04:52:18;14.33;;;10.87;;
12120;SDS011;6124;59.460;17.908;2023-09-08T04:54:45;14.07;;;11.60;;
12120;SDS011;6124;59.460;17.908;2023-09-08T04:57:13;14.50;;;11.37;;
12120;SDS011;6124;59.460;17.908;2023-09-08T04:59:40;13.77;;;11.67;;
12120;SDS011;6124;59.460;17.908;2023-09-08T05:02:07;13.30;;;11.67;;
12120;SDS011;6124;59.460;17.908;2023-09-08T05:04:35;14.63;;;12.17;;
12120;SDS011;6124;59.460;17.908;2023-09-08T05:07:02;14.83;;;12.70;;
12120;SDS011;6124;59.460;17.908;2023-09-08T05:09:31;13.27;;;11.43;;
12120;SDS011;6124;59.460;17.908;2023-09-08T05:11:59;13.60;;;11.57;;
12120;SDS011;6124;59.460;17.908;2023-09-08T05:14:26;15.83;;;12.53;;
12120;SDS011;6124;59.460;17.908;2023-09-08T05:16:54;15.57;;;12.30;;
12120;SDS011;6124;59.460;17.908;2023-09-08T05:19:21;14.97;;;12.83;;
12120;SDS011;6124;59.460;17.908;2023-09-08T05:21:49;14.73;;;12.93;;
12120;SDS011;6124;59.460;17.908;2023-09-08T05:24:17;17.10;;;12.80;;
12120;SDS011;6124;59.460;17.908;2023-09-08T05:26:47;13.63;;;11.63;;
12120;SDS011;6124;59.460;17.908;2023-09-08T05:29:14;18.37;;;12.90;;
12120;SDS011;6124;59.460;17.908;2023-09-08T05:31:42;13.10;;;11.47;;
12120;SDS011;6124;59.460;17.908;2023-09-08T05:34:09;13.43;;;11.60;;
12120;SDS011;6124;59.460;17.908;2023-09-08T05:36:36;14.40;;;11.83;;
12120;SDS011;6124;59.460;17.908;2023-09-08T05:39:05;13.63;;;11.53;;
12120;SDS011;6124;59.460;17.908;2023-09-08T05:41:32;13.60;;;11.40;;
12120;SDS011;6124;59.460;17.908;2023-09-08T05:44:01;15.13;;;11.97;;
12120;SDS011;6124;59.460;17.908;2023-09-08T05:46:30;12.63;;;11.00;;
12120;SDS011;6124;59.460;17.908;2023-09-08T05:48:57;12.70;;;11.17;;
12120;SDS011;6124;59.460;17.908;2023-09-08T05:51:24;12.77;;;11.17;;
12120;SDS011;6124;59.460;17.908;2023-09-08T05:53:52;13.43;;;11.07;;
12120;SDS011;6124;59.460;17.908;2023-09-08T05:56:19;13.53;;;12.13;;
12120;SDS011;6124;59.460;17.908;2023-09-08T05:58:46;12.13;;;10.80;;
12120;SDS011;6124;59.460;17.908;2023-09-08T06:01:16;12.43;;;11.13;;
12120;SDS011;6124;59.460;17.908;2023-09-08T06:03:43;11.23;;;10.03;;
12120;SDS011;6124;59.460;17.908;2023-09-08T06:06:10;11.47;;;10.37;;
12120;SDS011;6124;59.460;17.908;2023-09-08T06:08:38;12.63;;;10.83;;
12120;SDS011;6124;59.460;17.908;2023-09-08T06:11:05;13.17;;;10.67;;
12120;SDS011;6124;59.460;17.908;2023-09-08T06:13:33;10.97;;;9.97;;
12120;SDS011;6124;59.460;17.908;2023-09-08T06:16:00;11.90;;;10.50;;
12120;SDS011;6124;59.460;17.908;2023-09-08T06:18:29;11.97;;;10.50;;
12120;SDS011;6124;59.460;17.908;2023-09-08T06:20:56;11.83;;;10.10;;
12120;SDS011;6124;59.460;17.908;2023-09-08T06:23:24;11.33;;;9.93;;
12120;SDS011;6124;59.460;17.908;2023-09-08T06:25:55;10.63;;;9.53;;
12120;SDS011;6124;59.460;17.908;2023-09-08T06:28:25;12.50;;;9.80;;
12120;SDS011;6124;59.460;17.908;2023-09-08T06:30:52;11.20;;;9.73;;
12120;SDS011;6124;59.460;17.908;2023-09-08T06:33:19;10.50;;;9.33;;
12120;SDS011;6124;59.460;17.908;2023-09-08T06:35:48;12.03;;;10.17;;
12120;SDS011;6124;59.460;17.908;2023-09-08T06:38:16;11.33;;;9.20;;
12120;SDS011;6124;59.460;17.908;2023-09-08T06:40:43;10.97;;;9.77;;
12120;SDS011;6124;59.460;17.908;2023-09-08T06:43:11;10.67;;;9.07;;
12120;SDS011;6124;59.460;17.908;2023-09-08T06:45:38;9.50;;;8.50;;
12120;SDS011;6124;59.460;17.908;2023-09-08T06:48:06;10.23;;;9.20;;
12120;SDS011;6124;59.460;17.908;2023-09-08T06:50:34;9.40;;;8.50;;
12120;SDS011;6124;59.460;17.908;2023-09-08T06:53:02;10.47;;;8.90;;
12120;SDS011;6124;59.460;17.908;2023-09-08T06:55:30;13.40;;;9.57;;
12120;SDS011;6124;59.460;17.908;2023-09-08T06:57:57;9.90;;;8.90;;
12120;SDS011;6124;59.460;17.908;2023-09-08T07:00:25;9.60;;;8.67;;
12120;SDS011;6124;59.460;17.908;2023-09-08T07:02:53;9.20;;;8.20;;
12120;SDS011;6124;59.460;17.908;2023-09-08T07:05:20;10.23;;;8.30;;
12120;SDS011;6124;59.460;17.908;2023-09-08T07:07:47;9.53;;;8.40;;
12120;SDS011;6124;59.460;17.908;2023-09-08T07:10:16;10.37;;;8.30;;
12120;SDS011;6124;59.460;17.908;2023-09-08T07:12:43;9.43;;;7.80;;
12120;SDS011;6124;59.460;17.908;2023-09-08T07:15:12;9.70;;;8.20;;
12120;SDS011;6124;59.460;17.908;2023-09-08T07:17:39;9.07;;;7.87;;
12120;SDS011;6124;59.460;17.908;2023-09-08T07:20:07;8.77;;;7.87;;
12120;SDS011;6124;59.460;17.908;2023-09-08T07:22:34;11.93;;;8.30;;
12120;SDS011;6124;59.460;17.908;2023-09-08T07:25:02;9.70;;;7.93;;
12120;SDS011;6124;59.460;17.908;2023-09-08T07:27:31;9.27;;;7.80;;
12120;SDS011;6124;59.460;17.908;2023-09-08T07:29:58;9.23;;;8.00;;
12120;SDS011;6124;59.460;17.908;2023-09-08T07:32:25;8.90;;;7.80;;
12120;SDS011;6124;59.460;17.908;2023-09-08T07:34:53;9.03;;;7.53;;
12120;SDS011;6124;59.460;17.908;2023-09-08T07:37:21;8.50;;;7.57;;
12120;SDS011;6124;59.460;17.908;2023-09-08T07:39:48;7.87;;;6.93;;
12120;SDS011;6124;59.460;17.908;2023-09-08T07:42:16;8.83;;;7.93;;
12120;SDS011;6124;59.460;17.908;2023-09-08T07:44:45;8.63;;;7.57;;
12120;SDS011;6124;59.460;17.908;2023-09-08T07:47:12;8.77;;;7.97;;
12120;SDS011;6124;59.460;17.908;2023-09-08T07:49:44;8.57;;;7.67;;
12120;SDS011;6124;59.460;17.908;2023-09-08T07:52:12;8.13;;;7.33;;
12120;SDS011;6124;59.460;17.908;2023-09-08T07:54:39;8.07;;;7.27;;
12120;SDS011;6124;59.460;17.908;2023-09-08T07:57:07;9.03;;;7.43;;
12120;SDS011;6124;59.460;17.908;2023-09-08T07:59:34;9.03;;;7.33;;
12120;SDS011;6124;59.460;17.908;2023-09-08T08:02:03;10.67;;;7.97;;
12120;SDS011;6124;59.460;17.908;2023-09-08T08:04:30;8.80;;;8.00;;
12120;SDS011;6124;59.460;17.908;2023-09-08T08:06:58;9.07;;;7.57;;
12120;SDS011;6124;59.460;17.908;2023-09-08T08:09:25;8.07;;;7.27;;
12120;SDS011;6124;59.460;17.908;2023-09-08T08:11:52;8.63;;;7.83;;
12120;SDS011;6124;59.460;17.908;2023-09-08T08:14:19;7.93;;;7.00;;
12120;SDS011;6124;59.460;17.908;2023-09-08T08:16:47;8.73;;;7.00;;
12120;SDS011;6124;59.460;17.908;2023-09-08T08:19:16;8.03;;;7.20;;
12120;SDS011;6124;59.460;17.908;2023-09-08T08:21:43;8.80;;;7.90;;
12120;SDS011;6124;59.460;17.908;2023-09-08T08:24:10;7.93;;;7.13;;
12120;SDS011;6124;59.460;17.908;2023-09-08T08:26:38;7.73;;;6.77;;
12120;SDS011;6124;59.460;17.908;2023-09-08T08:29:05;9.03;;;7.30;;
12120;SDS011;6124;59.460;17.908;2023-09-08T08:31:32;8.43;;;7.10;;
12120;SDS011;6124;59.460;17.908;2023-09-08T08:33:59;8.33;;;7.50;;
12120;SDS011;6124;59.460;17.908;2023-09-08T08:36:29;7.97;;;6.63;;
12120;SDS011;6124;59.460;17.908;2023-09-08T08:38:56;7.63;;;6.77;;
12120;SDS011;6124;59.460;17.908;2023-09-08T08:41:23;7.70;;;6.87;;
12120;SDS011;6124;59.460;17.908;2023-09-08T08:43:51;7.70;;;7.00;;
12120;SDS011;6124;59.460;17.908;2023-09-08T08:46:18;7.63;;;6.83;;
12120;SDS011;6124;59.460;17.908;2023-09-08T08:48:48;7.23;;;6.53;;
12120;SDS011;6124;59.460;17.908;2023-09-08T08:51:19;8.27;;;6.70;;
12120;SDS011;6124;59.460;17.908;2023-09-08T08:53:50;7.00;;;6.40;;
12120;SDS011;6124;59.460;17.908;2023-09-08T08:56:17;6.87;;;6.17;;
12120;SDS011;6124;59.460;17.908;2023-09-08T08:58:45;6.97;;;6.33;;
12120;SDS011;6124;59.460;17.908;2023-09-08T09:01:12;7.23;;;6.03;;
12120;SDS011;6124;59.460;17.908;2023-09-08T09:03:40;7.70;;;6.97;;
12120;SDS011;6124;59.460;17.908;2023-09-08T09:06:09;6.97;;;6.30;;
12120;SDS011;6124;59.460;17.908;2023-09-08T09:08:36;6.70;;;6.10;;
12120;SDS011;6124;59.460;17.908;2023-09-08T09:11:05;7.27;;;6.57;;
12120;SDS011;6124;59.460;17.908;2023-09-08T09:13:32;7.10;;;6.50;;
12120;SDS011;6124;59.460;17.908;2023-09-08T09:16:00;6.73;;;6.13;;
12120;SDS011;6124;59.460;17.908;2023-09-08T09:18:28;6.70;;;6.00;;
12120;SDS011;6124;59.460;17.908;2023-09-08T09:20:59;7.10;;;6.13;;
12120;SDS011;6124;59.460;17.908;2023-09-08T09:23:27;8.90;;;6.63;;
12120;SDS011;6124;59.460;17.908;2023-09-08T09:25:55;7.13;;;6.43;;
12120;SDS011;6124;59.460;17.908;2023-09-08T09:28:24;6.73;;;5.87;;
12120;SDS011;6124;59.460;17.908;2023-09-08T09:30:52;6.77;;;6.17;;
12120;SDS011;6124;59.460;17.908;2023-09-08T09:33:20;7.30;;;5.80;;
12120;SDS011;6124;59.460;17.908;2023-09-08T09:35:48;6.10;;;5.50;;
12120;SDS011;6124;59.460;17.908;2023-09-08T09:38:17;6.53;;;5.83;;
12120;SDS011;6124;59.460;17.908;2023-09-08T09:40:44;7.10;;;6.43;;
12120;SDS011;6124;59.460;17.908;2023-09-08T09:43:12;6.30;;;5.70;;
12120;SDS011;6124;59.460;17.908;2023-09-08T09:45:41;6.93;;;6.33;;
12120;SDS011;6124;59.460;17.908;2023-09-08T09:48:09;6.67;;;5.80;;
12120;SDS011;6124;59.460;17.908;2023-09-08T09:50:37;6.33;;;5.73;;
12120;SDS011;6124;59.460;17.908;2023-09-08T09:53:07;6.17;;;5.63;;
12120;SDS011;6124;59.460;17.908;2023-09-08T09:55:36;6.27;;;5.70;;
12120;SDS011;6124;59.460;17.908;2023-09-08T09:58:04;6.37;;;5.77;;
12120;SDS011;6124;59.460;17.908;2023-09-08T10:00:32;6.27;;;5.77;;
12120;SDS011;6124;59.460;17.908;2023-09-08T10:03:01;6.17;;;5.57;;
12120;SDS011;6124;59.460;17.908;2023-09-08T10:05:29;6.00;;;5.40;;
12120;SDS011;6124;59.460;17.908;2023-09-08T10:07:56;6.30;;;5.70;;
12120;SDS011;6124;59.460;17.908;2023-09-08T10:10:25;6.27;;;5.60;;
12120;SDS011;6124;59.460;17.908;2023-09-08T10:12:53;5.50;;;5.00;;
12120;SDS011;6124;59.460;17.908;2023-09-08T10:15:21;5.97;;;5.47;;
12120;SDS011;6124;59.460;17.908;2023-09-08T10:17:52;6.83;;;5.70;;
12120;SDS011;6124;59.460;17.908;2023-09-08T10:20:23;6.60;;;5.97;;
12120;SDS011;6124;59.460;17.908;2023-09-08T10:22:52;6.37;;;5.27;;
12120;SDS011;6124;59.460;17.908;2023-09-08T10:25:20;5.60;;;5.10;;
12120;SDS011;6124;59.460;17.908;2023-09-08T10:27:48;5.60;;;5.00;;
12120;SDS011;6124;59.460;17.908;2023-09-08T10:30:15;6.10;;;5.30;;
12120;SDS011;6124;59.460;17.908;2023-09-08T10:32:45;8.47;;;5.83;;
12120;SDS011;6124;59.460;17.908;2023-09-08T10:35:15;6.10;;;5.60;;
12120;SDS011;6124;59.460;17.908;2023-09-08T10:37:45;5.93;;;5.33;;
12120;SDS011;6124;59.460;17.908;2023-09-08T10:40:22;5.70;;;5.20;;
12120;SDS011;6124;59.460;17.908;2023-09-08T10:43:05;6.10;;;5.23;;
12120;SDS011;6124;59.460;17.908;2023-09-08T10:45:32;6.97;;;6.00;;
12120;SDS011;6124;59.460;17.908;2023-09-08T10:47:59;6.13;;;5.53;;
12120;SDS011;6124;59.460;17.908;2023-09-08T10:50:29;5.57;;;5.07;;
12120;SDS011;6124;59.460;17.908;2023-09-08T10:53:05;5.90;;;5.10;;
12120;SDS011;6124;59.460;17.908;2023-09-08T10:55:37;6.27;;;4.83;;
12120;SDS011;6124;59.460;17.908;2023-09-08T10:58:04;6.83;;;5.20;;
12120;SDS011;6124;59.460;17.908;2023-09-08T11:00:44;6.13;;;5.53;;
12120;SDS011;6124;59.460;17.908;2023-09-08T11:03:12;6.27;;;5.63;;
12120;SDS011;6124;59.460;17.908;2023-09-08T11:05:41;6.00;;;5.50;;
12120;SDS011;6124;59.460;17.908;2023-09-08T11:08:11;6.77;;;5.23;;
12120;SDS011;6124;59.460;17.908;2023-09-08T11:10:39;5.97;;;5.43;;
12120;SDS011;6124;59.460;17.908;2023-09-08T11:13:07;7.40;;;5.10;;
12120;SDS011;6124;59.460;17.908;2023-09-08T11:15:34;5.70;;;5.20;;
12120;SDS011;6124;59.460;17.908;2023-09-08T11:18:05;5.63;;;5.13;;
12120;SDS011;6124;59.460;17.908;2023-09-08T11:20:33;6.03;;;4.87;;
12120;SDS011;6124;59.460;17.908;2023-09-08T11:23:01;6.07;;;5.47;;
12120;SDS011;6124;59.460;17.908;2023-09-08T11:25:32;5.90;;;5.40;;
12120;SDS011;6124;59.460;17.908;2023-09-08T11:28:00;5.43;;;4.73;;
12120;SDS011;6124;59.460;17.908;2023-09-08T11:30:28;6.93;;;5.47;;
12120;SDS011;6124;59.460;17.908;2023-09-08T11:32:55;5.57;;;5.00;;
12120;SDS011;6124;59.460;17.908;2023-09-08T11:35:26;5.80;;;5.30;;
12120;SDS011;6124;59.460;17.908;2023-09-08T11:37:58;5.73;;;5.10;;
12120;SDS011;6124;59.460;17.908;2023-09-08T11:40:25;5.63;;;5.10;;
12120;SDS011;6124;59.460;17.908;2023-09-08T11:42:54;6.43;;;5.10;;
12120;SDS011;6124;59.460;17.908;2023-09-08T11:45:22;5.93;;;5.33;;
12120;SDS011;6124;59.460;17.908;2023-09-08T11:47:52;5.93;;;4.93;;
12120;SDS011;6124;59.460;17.908;2023-09-08T11:50:19;5.40;;;4.97;;
12120;SDS011;6124;59.460;17.908;2023-09-08T11:52:47;5.53;;;5.03;;
12120;SDS011;6124;59.460;17.908;2023-09-08T11:55:15;5.50;;;5.00;;
12120;SDS011;6124;59.460;17.908;2023-09-08T11:57:42;5.73;;;5.20;;
12120;SDS011;6124;59.460;17.908;2023-09-08T12:00:12;7.00;;;5.07;;
12120;SDS011;6124;59.460;17.908;2023-09-08T12:02:42;9.20;;;5.40;;
12120;SDS011;6124;59.460;17.908;2023-09-08T12:05:13;6.57;;;5.20;;
12120;SDS011;6124;59.460;17.908;2023-09-08T12:07:40;6.10;;;4.83;;
12120;SDS011;6124;59.460;17.908;2023-09-08T12:10:08;6.33;;;5.00;;
12120;SDS011;6124;59.460;17.908;2023-09-08T12:12:41;4.87;;;4.43;;
12120;SDS011;6124;59.460;17.908;2023-09-08T12:15:09;5.00;;;4.60;;
12120;SDS011;6124;59.460;17.908;2023-09-08T12:17:47;5.57;;;5.00;;
12120;SDS011;6124;59.460;17.908;2023-09-08T12:20:15;5.73;;;4.43;;
12120;SDS011;6124;59.460;17.908;2023-09-08T12:22:49;6.03;;;5.10;;
12120;SDS011;6124;59.460;17.908;2023-09-08T12:25:16;9.23;;;5.40;;
12120;SDS011;6124;59.460;17.908;2023-09-08T12:27:44;5.07;;;4.67;;
12120;SDS011;6124;59.460;17.908;2023-09-08T12:30:16;7.17;;;4.73;;
12120;SDS011;6124;59.460;17.908;2023-09-08T12:32:44;5.17;;;4.60;;
12120;SDS011;6124;59.460;17.908;2023-09-08T12:35:18;5.17;;;4.67;;
12120;SDS011;6124;59.460;17.908;2023-09-08T12:37:46;5.10;;;4.60;;
12120;SDS011;6124;59.460;17.908;2023-09-08T12:40:14;6.50;;;4.47;;
12120;SDS011;6124;59.460;17.908;2023-09-08T12:42:41;5.27;;;4.70;;
12120;SDS011;6124;59.460;17.908;2023-09-08T12:45:09;4.70;;;4.30;;
12120;SDS011;6124;59.460;17.908;2023-09-08T12:47:36;5.50;;;5.00;;
12120;SDS011;6124;59.460;17.908;2023-09-08T12:50:03;5.33;;;4.87;;
12120;SDS011;6124;59.460;17.908;2023-09-08T12:52:32;5.67;;;5.17;;
12120;SDS011;6124;59.460;17.908;2023-09-08T12:55:00;5.40;;;4.90;;
12120;SDS011;6124;59.460;17.908;2023-09-08T12:57:27;5.60;;;5.10;;
12120;SDS011;6124;59.460;17.908;2023-09-08T12:59:55;5.03;;;4.53;;
12120;SDS011;6124;59.460;17.908;2023-09-08T13:02:22;5.57;;;5.07;;
12120;SDS011;6124;59.460;17.908;2023-09-08T13:04:49;5.77;;;5.23;;
12120;SDS011;6124;59.460;17.908;2023-09-08T13:07:17;5.73;;;5.23;;
12120;SDS011;6124;59.460;17.908;2023-09-08T13:09:46;5.47;;;4.97;;
12120;SDS011;6124;59.460;17.908;2023-09-08T13:12:13;6.43;;;4.97;;
12120;SDS011;6124;59.460;17.908;2023-09-08T13:14:40;5.13;;;4.63;;
12120;SDS011;6124;59.460;17.908;2023-09-08T13:17:08;6.10;;;5.50;;
12120;SDS011;6124;59.460;17.908;2023-09-08T13:19:36;6.10;;;5.50;;
12120;SDS011;6124;59.460;17.908;2023-09-08T13:22:03;5.13;;;4.73;;
12120;SDS011;6124;59.460;17.908;2023-09-08T13:24:31;6.17;;;5.33;;
12120;SDS011;6124;59.460;17.908;2023-09-08T13:27:00;6.77;;;5.57;;
12120;SDS011;6124;59.460;17.908;2023-09-08T13:29:27;6.30;;;5.70;;
12120;SDS011;6124;59.460;17.908;2023-09-08T13:31:55;5.83;;;5.00;;
12120;SDS011;6124;59.460;17.908;2023-09-08T13:34:23;5.83;;;5.20;;
12120;SDS011;6124;59.460;17.908;2023-09-08T13:36:50;5.97;;;5.43;;
12120;SDS011;6124;59.460;17.908;2023-09-08T13:39:18;5.70;;;5.20;;
12120;SDS011;6124;59.460;17.908;2023-09-08T13:41:46;6.77;;;5.60;;
12120;SDS011;6124;59.460;17.908;2023-09-08T13:44:16;6.10;;;5.50;;
12120;SDS011;6124;59.460;17.908;2023-09-08T13:46:44;6.13;;;5.53;;
12120;SDS011;6124;59.460;17.908;2023-09-08T13:49:12;5.83;;;5.00;;
12120;SDS011;6124;59.460;17.908;2023-09-08T13:51:39;6.03;;;5.53;;
12120;SDS011;6124;59.460;17.908;2023-09-08T13:54:07;7.37;;;5.67;;
12120;SDS011;6124;59.460;17.908;2023-09-08T13:56:34;6.00;;;5.40;;
12120;SDS011;6124;59.460;17.908;2023-09-08T13:59:02;6.23;;;5.63;;
12120;SDS011;6124;59.460;17.908;2023-09-08T14:01:32;6.43;;;5.40;;
12120;SDS011;6124;59.460;17.908;2023-09-08T14:03:59;6.17;;;5.57;;
12120;SDS011;6124;59.460;17.908;2023-09-08T14:06:27;6.70;;;5.73;;
12120;SDS011;6124;59.460;17.908;2023-09-08T14:08:54;5.70;;;5.20;;
12120;SDS011;6124;59.460;17.908;2023-09-08T14:11:22;6.57;;;5.63;;
12120;SDS011;6124;59.460;17.908;2023-09-08T14:13:49;6.23;;;5.57;;
12120;SDS011;6124;59.460;17.908;2023-09-08T14:16:17;5.80;;;5.30;;
12120;SDS011;6124;59.460;17.908;2023-09-08T14:18:46;6.90;;;5.17;;
12120;SDS011;6124;59.460;17.908;2023-09-08T14:21:13;5.60;;;5.00;;
12120;SDS011;6124;59.460;17.908;2023-09-08T14:23:40;5.60;;;5.00;;
12120;SDS011;6124;59.460;17.908;2023-09-08T14:26:08;5.27;;;4.77;;
12120;SDS011;6124;59.460;17.908;2023-09-08T14:28:35;5.60;;;5.10;;
12120;SDS011;6124;59.460;17.908;2023-09-08T14:31:02;5.90;;;5.30;;
12120;SDS011;6124;59.460;17.908;2023-09-08T14:33:30;5.77;;;5.07;;
12120;SDS011;6124;59.460;17.908;2023-09-08T14:36:00;5.37;;;4.97;;
12120;SDS011;6124;59.460;17.908;2023-09-08T14:38:27;4.87;;;4.47;;
12120;SDS011;6124;59.460;17.908;2023-09-08T14:40:55;5.63;;;5.13;;
12120;SDS011;6124;59.460;17.908;2023-09-08T14:43:23;5.80;;;5.30;;
12120;SDS011;6124;59.460;17.908;2023-09-08T14:45:50;5.53;;;5.00;;
12120;SDS011;6124;59.460;17.908;2023-09-08T14:48:18;5.40;;;4.87;;